sensor_id;sensor_type;location;lat;lon;timestamp;P1;durP1;ratioP1;P2;durP2;ratioP2
64520;SDS011;50896;46.714;17.322;2023-02-28T00:01:09;14.30;;;9.05;;
64520;SDS011;50896;46.714;17.322;2023-02-28T00:03:37;14.90;;;9.35;;
64520;SDS011;50896;46.714;17.322;2023-02-28T00:06:04;13.68;;;9.18;;
64520;SDS011;50896;46.714;17.322;2023-02-28T00:08:32;17.55;;;9.95;;
64520;SDS011;50896;46.714;17.322;2023-02-28T00:11:00;17.08;;;10.43;;
64520;SDS011;50896;46.714;17.322;2023-02-28T00:13:29;20.02;;;10.55;;
64520;SDS011;50896;46.714;17.322;2023-02-28T00:16:04;16.05;;;9.73;;
64520;SDS011;50896;46.714;17.322;2023-02-28T00:18:33;15.52;;;9.70;;
64520;SDS011;50896;46.714;17.322;2023-02-28T00:20:59;17.13;;;11.20;;
64520;SDS011;50896;46.714;17.322;2023-02-28T00:23:26;17.27;;;10.63;;
64520;SDS011;50896;46.714;17.322;2023-02-28T00:25:54;16.23;;;10.75;;
64520;SDS011;50896;46.714;17.322;2023-02-28T00:28:22;17.00;;;11.65;;
64520;SDS011;50896;46.714;17.322;2023-02-28T00:30:49;16.88;;;10.88;;
64520;SDS011;50896;46.714;17.322;2023-02-28T00:33:16;19.50;;;10.95;;
64520;SDS011;50896;46.714;17.322;2023-02-28T00:35:43;15.60;;;10.55;;
64520;SDS011;50896;46.714;17.322;2023-02-28T00:38:13;17.27;;;10.63;;
64520;SDS011;50896;46.714;17.322;2023-02-28T00:40:40;17.58;;;10.80;;
64520;SDS011;50896;46.714;17.322;2023-02-28T00:43:07;18.85;;;11.18;;
64520;SDS011;50896;46.714;17.322;2023-02-28T00:45:34;18.73;;;11.05;;
64520;SDS011;50896;46.714;17.322;2023-02-28T00:48:00;16.50;;;10.95;;
64520;SDS011;50896;46.714;17.322;2023-02-28T00:50:27;18.58;;;11.35;;
64520;SDS011;50896;46.714;17.322;2023-02-28T00:52:56;18.92;;;11.38;;
64520;SDS011;50896;46.714;17.322;2023-02-28T00:55:23;17.90;;;11.43;;
64520;SDS011;50896;46.714;17.322;2023-02-28T00:57:49;16.70;;;10.80;;
64520;SDS011;50896;46.714;17.322;2023-02-28T01:00:16;19.25;;;11.57;;
64520;SDS011;50896;46.714;17.322;2023-02-28T01:02:43;18.35;;;12.23;;
64520;SDS011;50896;46.714;17.322;2023-02-28T01:05:10;18.25;;;11.77;;
64520;SDS011;50896;46.714;17.322;2023-02-28T01:07:37;19.55;;;11.65;;
64520;SDS011;50896;46.714;17.322;2023-02-28T01:10:04;22.90;;;11.98;;
64520;SDS011;50896;46.714;17.322;2023-02-28T01:12:32;17.85;;;11.45;;
64520;SDS011;50896;46.714;17.322;2023-02-28T01:14:58;19.05;;;11.50;;
64520;SDS011;50896;46.714;17.322;2023-02-28T01:17:25;19.52;;;11.93;;
64520;SDS011;50896;46.714;17.322;2023-02-28T01:19:53;19.95;;;11.82;;
64520;SDS011;50896;46.714;17.322;2023-02-28T01:22:24;19.60;;;12.25;;
64520;SDS011;50896;46.714;17.322;2023-02-28T01:24:51;19.33;;;13.18;;
64520;SDS011;50896;46.714;17.322;2023-02-28T01:27:17;19.23;;;11.65;;
64520;SDS011;50896;46.714;17.322;2023-02-28T01:29:44;21.73;;;12.50;;
64520;SDS011;50896;46.714;17.322;2023-02-28T01:32:11;20.70;;;12.55;;
64520;SDS011;50896;46.714;17.322;2023-02-28T01:34:38;18.67;;;13.52;;
64520;SDS011;50896;46.714;17.322;2023-02-28T01:37:05;24.17;;;13.23;;
64520;SDS011;50896;46.714;17.322;2023-02-28T01:39:32;17.15;;;11.93;;
64520;SDS011;50896;46.714;17.322;2023-02-28T01:41:58;17.65;;;12.05;;
64520;SDS011;50896;46.714;17.322;2023-02-28T01:47:34;17.50;;;12.00;;
64520;SDS011;50896;46.714;17.322;2023-02-28T01:50:06;20.40;;;12.20;;
64520;SDS011;50896;46.714;17.322;2023-02-28T01:52:36;18.30;;;11.45;;
64520;SDS011;50896;46.714;17.322;2023-02-28T01:55:04;18.20;;;12.52;;
64520;SDS011;50896;46.714;17.322;2023-02-28T01:57:35;17.13;;;12.48;;
64520;SDS011;50896;46.714;17.322;2023-02-28T02:00:10;20.77;;;12.10;;
64520;SDS011;50896;46.714;17.322;2023-02-28T02:02:46;19.85;;;12.43;;
64520;SDS011;50896;46.714;17.322;2023-02-28T02:05:17;18.90;;;12.45;;
64520;SDS011;50896;46.714;17.322;2023-02-28T02:07:47;19.80;;;12.20;;
64520;SDS011;50896;46.714;17.322;2023-02-28T02:10:19;20.83;;;12.80;;
64520;SDS011;50896;46.714;17.322;2023-02-28T02:38:21;20.08;;;12.82;;
64520;SDS011;50896;46.714;17.322;2023-02-28T02:41:21;22.02;;;13.50;;
64520;SDS011;50896;46.714;17.322;2023-02-28T02:43:56;18.98;;;11.65;;
64520;SDS011;50896;46.714;17.322;2023-02-28T02:46:38;20.10;;;11.68;;
64520;SDS011;50896;46.714;17.322;2023-02-28T02:49:10;20.00;;;12.48;;
64520;SDS011;50896;46.714;17.322;2023-02-28T02:51:42;18.25;;;11.68;;
64520;SDS011;50896;46.714;17.322;2023-02-28T02:54:24;20.50;;;10.98;;
64520;SDS011;50896;46.714;17.322;2023-02-28T02:56:56;18.58;;;11.38;;
64520;SDS011;50896;46.714;17.322;2023-02-28T02:59:26;19.60;;;11.27;;
64520;SDS011;50896;46.714;17.322;2023-02-28T03:01:56;17.15;;;10.60;;
64520;SDS011;50896;46.714;17.322;2023-02-28T03:04:26;21.75;;;11.20;;
64520;SDS011;50896;46.714;17.322;2023-02-28T03:06:58;17.55;;;10.75;;
64520;SDS011;50896;46.714;17.322;2023-02-28T03:09:26;17.92;;;10.75;;
64520;SDS011;50896;46.714;17.322;2023-02-28T03:11:53;17.95;;;11.25;;
64520;SDS011;50896;46.714;17.322;2023-02-28T03:17:17;16.85;;;10.18;;
64520;SDS011;50896;46.714;17.322;2023-02-28T03:20:15;17.08;;;10.32;;
64520;SDS011;50896;46.714;17.322;2023-02-28T03:22:59;15.90;;;9.63;;
64520;SDS011;50896;46.714;17.322;2023-02-28T03:28:04;16.92;;;10.05;;
64520;SDS011;50896;46.714;17.322;2023-02-28T03:35:51;17.55;;;10.70;;
64520;SDS011;50896;46.714;17.322;2023-02-28T03:41:05;18.55;;;10.70;;
64520;SDS011;50896;46.714;17.322;2023-02-28T03:44:13;18.70;;;10.02;;
64520;SDS011;50896;46.714;17.322;2023-02-28T03:46:46;18.20;;;10.43;;
64520;SDS011;50896;46.714;17.322;2023-02-28T03:49:23;18.55;;;10.20;;
64520;SDS011;50896;46.714;17.322;2023-02-28T03:51:58;16.42;;;10.25;;
64520;SDS011;50896;46.714;17.322;2023-02-28T03:59:41;14.77;;;9.20;;
64520;SDS011;50896;46.714;17.322;2023-02-28T04:02:10;18.25;;;10.63;;
64520;SDS011;50896;46.714;17.322;2023-02-28T04:04:37;17.08;;;9.98;;
64520;SDS011;50896;46.714;17.322;2023-02-28T04:07:06;17.33;;;10.88;;
64520;SDS011;50896;46.714;17.322;2023-02-28T04:09:34;18.40;;;10.65;;
64520;SDS011;50896;46.714;17.322;2023-02-28T04:12:01;20.17;;;11.40;;
64520;SDS011;50896;46.714;17.322;2023-02-28T04:14:28;16.60;;;9.90;;
64520;SDS011;50896;46.714;17.322;2023-02-28T04:16:54;17.48;;;10.45;;
64520;SDS011;50896;46.714;17.322;2023-02-28T04:19:21;19.75;;;10.27;;
64520;SDS011;50896;46.714;17.322;2023-02-28T04:21:49;16.25;;;10.57;;
64520;SDS011;50896;46.714;17.322;2023-02-28T04:24:22;16.67;;;9.60;;
64520;SDS011;50896;46.714;17.322;2023-02-28T04:26:51;16.50;;;10.07;;
64520;SDS011;50896;46.714;17.322;2023-02-28T04:29:22;17.65;;;10.55;;
64520;SDS011;50896;46.714;17.322;2023-02-28T04:31:53;16.48;;;10.18;;
64520;SDS011;50896;46.714;17.322;2023-02-28T04:34:21;14.48;;;9.27;;
64520;SDS011;50896;46.714;17.322;2023-02-28T04:36:48;18.80;;;9.57;;
64520;SDS011;50896;46.714;17.322;2023-02-28T04:39:38;16.20;;;8.85;;
64520;SDS011;50896;46.714;17.322;2023-02-28T04:42:06;16.83;;;8.88;;
64520;SDS011;50896;46.714;17.322;2023-02-28T04:44:32;13.38;;;8.23;;
64520;SDS011;50896;46.714;17.322;2023-02-28T04:46:59;14.95;;;8.90;;
64520;SDS011;50896;46.714;17.322;2023-02-28T04:49:26;16.75;;;8.40;;
64520;SDS011;50896;46.714;17.322;2023-02-28T04:51:53;12.63;;;8.77;;
64520;SDS011;50896;46.714;17.322;2023-02-28T04:54:20;13.35;;;8.70;;
64520;SDS011;50896;46.714;17.322;2023-02-28T04:56:47;13.65;;;8.43;;
64520;SDS011;50896;46.714;17.322;2023-02-28T04:59:16;13.55;;;8.30;;
64520;SDS011;50896;46.714;17.322;2023-02-28T05:01:45;17.45;;;8.38;;
64520;SDS011;50896;46.714;17.322;2023-02-28T05:04:13;13.88;;;8.27;;
64520;SDS011;50896;46.714;17.322;2023-02-28T05:06:40;12.23;;;7.53;;
64520;SDS011;50896;46.714;17.322;2023-02-28T05:09:07;13.63;;;8.10;;
64520;SDS011;50896;46.714;17.322;2023-02-28T05:11:33;13.50;;;7.57;;
64520;SDS011;50896;46.714;17.322;2023-02-28T05:14:02;12.43;;;7.38;;
64520;SDS011;50896;46.714;17.322;2023-02-28T05:16:31;13.02;;;7.78;;
64520;SDS011;50896;46.714;17.322;2023-02-28T05:18:58;13.00;;;7.53;;
64520;SDS011;50896;46.714;17.322;2023-02-28T05:23:56;10.25;;;6.80;;
64520;SDS011;50896;46.714;17.322;2023-02-28T05:26:26;13.07;;;7.28;;
64520;SDS011;50896;46.714;17.322;2023-02-28T05:28:54;10.40;;;6.78;;
64520;SDS011;50896;46.714;17.322;2023-02-28T05:31:21;10.45;;;7.00;;
64520;SDS011;50896;46.714;17.322;2023-02-28T05:33:48;12.02;;;7.43;;
64520;SDS011;50896;46.714;17.322;2023-02-28T05:36:15;14.93;;;7.60;;
64520;SDS011;50896;46.714;17.322;2023-02-28T05:38:42;10.95;;;5.85;;
64520;SDS011;50896;46.714;17.322;2023-02-28T05:41:10;10.65;;;6.40;;
64520;SDS011;50896;46.714;17.322;2023-02-28T05:43:37;10.63;;;6.82;;
64520;SDS011;50896;46.714;17.322;2023-02-28T05:46:08;10.55;;;6.20;;
64520;SDS011;50896;46.714;17.322;2023-02-28T05:48:37;9.60;;;5.90;;
64520;SDS011;50896;46.714;17.322;2023-02-28T05:51:06;9.95;;;5.80;;
64520;SDS011;50896;46.714;17.322;2023-02-28T05:53:34;11.48;;;6.22;;
64520;SDS011;50896;46.714;17.322;2023-02-28T05:56:01;10.13;;;5.57;;
64520;SDS011;50896;46.714;17.322;2023-02-28T05:58:29;10.50;;;6.03;;
64520;SDS011;50896;46.714;17.322;2023-02-28T06:00:58;8.75;;;5.63;;
64520;SDS011;50896;46.714;17.322;2023-02-28T06:03:25;9.65;;;6.10;;
64520;SDS011;50896;46.714;17.322;2023-02-28T06:05:53;7.97;;;5.10;;
64520;SDS011;50896;46.714;17.322;2023-02-28T06:08:20;9.25;;;6.00;;
64520;SDS011;50896;46.714;17.322;2023-02-28T06:10:47;10.00;;;6.22;;
64520;SDS011;50896;46.714;17.322;2023-02-28T06:13:14;11.43;;;6.22;;
64520;SDS011;50896;46.714;17.322;2023-02-28T06:15:41;9.73;;;5.95;;
64520;SDS011;50896;46.714;17.322;2023-02-28T06:18:08;11.00;;;6.22;;
64520;SDS011;50896;46.714;17.322;2023-02-28T06:20:35;9.85;;;6.15;;
64520;SDS011;50896;46.714;17.322;2023-02-28T06:23:02;9.85;;;6.07;;
64520;SDS011;50896;46.714;17.322;2023-02-28T06:25:29;10.88;;;6.32;;
64520;SDS011;50896;46.714;17.322;2023-02-28T06:27:56;10.30;;;6.22;;
64520;SDS011;50896;46.714;17.322;2023-02-28T06:30:23;11.70;;;6.57;;
64520;SDS011;50896;46.714;17.322;2023-02-28T06:32:53;13.02;;;7.18;;
64520;SDS011;50896;46.714;17.322;2023-02-28T06:35:21;11.77;;;6.38;;
64520;SDS011;50896;46.714;17.322;2023-02-28T06:37:48;13.23;;;6.80;;
64520;SDS011;50896;46.714;17.322;2023-02-28T06:40:14;12.23;;;6.75;;
64520;SDS011;50896;46.714;17.322;2023-02-28T06:42:42;12.07;;;6.50;;
64520;SDS011;50896;46.714;17.322;2023-02-28T06:45:09;12.55;;;6.25;;
64520;SDS011;50896;46.714;17.322;2023-02-28T06:47:38;10.40;;;6.05;;
64520;SDS011;50896;46.714;17.322;2023-02-28T06:50:06;10.80;;;5.97;;
64520;SDS011;50896;46.714;17.322;2023-02-28T06:52:34;10.68;;;5.85;;
64520;SDS011;50896;46.714;17.322;2023-02-28T06:55:04;12.55;;;6.00;;
64520;SDS011;50896;46.714;17.322;2023-02-28T06:57:33;10.00;;;5.97;;
64520;SDS011;50896;46.714;17.322;2023-02-28T07:00:03;8.63;;;5.60;;
64520;SDS011;50896;46.714;17.322;2023-02-28T07:02:37;8.20;;;5.50;;
64520;SDS011;50896;46.714;17.322;2023-02-28T07:07:31;11.07;;;5.07;;
64520;SDS011;50896;46.714;17.322;2023-02-28T07:09:58;8.73;;;5.63;;
64520;SDS011;50896;46.714;17.322;2023-02-28T07:12:25;9.10;;;5.50;;
64520;SDS011;50896;46.714;17.322;2023-02-28T07:14:52;9.43;;;5.45;;
64520;SDS011;50896;46.714;17.322;2023-02-28T07:17:20;11.00;;;5.78;;
64520;SDS011;50896;46.714;17.322;2023-02-28T07:19:47;10.60;;;5.82;;
64520;SDS011;50896;46.714;17.322;2023-02-28T07:22:14;10.57;;;5.88;;
64520;SDS011;50896;46.714;17.322;2023-02-28T07:24:41;11.32;;;5.95;;
64520;SDS011;50896;46.714;17.322;2023-02-28T07:27:08;11.48;;;5.97;;
64520;SDS011;50896;46.714;17.322;2023-02-28T07:29:35;7.97;;;5.45;;
64520;SDS011;50896;46.714;17.322;2023-02-28T07:32:01;8.73;;;5.25;;
64520;SDS011;50896;46.714;17.322;2023-02-28T07:34:28;7.63;;;5.20;;
64520;SDS011;50896;46.714;17.322;2023-02-28T07:36:55;8.50;;;5.05;;
64520;SDS011;50896;46.714;17.322;2023-02-28T07:39:22;8.70;;;5.13;;
64520;SDS011;50896;46.714;17.322;2023-02-28T07:41:49;9.30;;;5.50;;
64520;SDS011;50896;46.714;17.322;2023-02-28T07:44:16;8.95;;;5.47;;
64520;SDS011;50896;46.714;17.322;2023-02-28T07:46:43;9.20;;;4.95;;
64520;SDS011;50896;46.714;17.322;2023-02-28T07:49:09;12.07;;;5.43;;
64520;SDS011;50896;46.714;17.322;2023-02-28T07:51:36;8.57;;;5.60;;
64520;SDS011;50896;46.714;17.322;2023-02-28T07:54:03;11.88;;;5.57;;
64520;SDS011;50896;46.714;17.322;2023-02-28T07:56:30;9.98;;;5.20;;
64520;SDS011;50896;46.714;17.322;2023-02-28T07:58:57;10.13;;;5.53;;
64520;SDS011;50896;46.714;17.322;2023-02-28T08:01:25;9.52;;;5.82;;
64520;SDS011;50896;46.714;17.322;2023-02-28T08:03:51;9.35;;;5.55;;
64520;SDS011;50896;46.714;17.322;2023-02-28T08:06:21;8.85;;;5.15;;
64520;SDS011;50896;46.714;17.322;2023-02-28T08:08:49;6.88;;;4.53;;
64520;SDS011;50896;46.714;17.322;2023-02-28T08:11:16;6.13;;;4.28;;
64520;SDS011;50896;46.714;17.322;2023-02-28T08:13:44;6.53;;;4.40;;
64520;SDS011;50896;46.714;17.322;2023-02-28T08:16:12;7.47;;;4.55;;
64520;SDS011;50896;46.714;17.322;2023-02-28T08:18:44;6.55;;;4.60;;
64520;SDS011;50896;46.714;17.322;2023-02-28T08:21:10;7.25;;;4.45;;
64520;SDS011;50896;46.714;17.322;2023-02-28T08:23:38;7.50;;;4.60;;
64520;SDS011;50896;46.714;17.322;2023-02-28T08:26:05;7.50;;;4.78;;
64520;SDS011;50896;46.714;17.322;2023-02-28T08:28:32;8.18;;;5.57;;
64520;SDS011;50896;46.714;17.322;2023-02-28T08:30:59;8.55;;;4.85;;
64520;SDS011;50896;46.714;17.322;2023-02-28T08:33:26;8.73;;;5.18;;
64520;SDS011;50896;46.714;17.322;2023-02-28T08:35:55;9.82;;;5.40;;
64520;SDS011;50896;46.714;17.322;2023-02-28T08:38:22;7.07;;;4.53;;
64520;SDS011;50896;46.714;17.322;2023-02-28T08:40:49;7.53;;;4.78;;
64520;SDS011;50896;46.714;17.322;2023-02-28T08:43:16;7.40;;;4.82;;
64520;SDS011;50896;46.714;17.322;2023-02-28T08:45:43;9.75;;;5.60;;
64520;SDS011;50896;46.714;17.322;2023-02-28T08:48:10;9.07;;;5.28;;
64520;SDS011;50896;46.714;17.322;2023-02-28T08:50:37;8.85;;;5.13;;
64520;SDS011;50896;46.714;17.322;2023-02-28T08:53:04;11.05;;;6.25;;
64520;SDS011;50896;46.714;17.322;2023-02-28T08:55:30;9.57;;;5.65;;
64520;SDS011;50896;46.714;17.322;2023-02-28T08:57:57;9.38;;;5.63;;
64520;SDS011;50896;46.714;17.322;2023-02-28T09:00:24;11.02;;;5.40;;
64520;SDS011;50896;46.714;17.322;2023-02-28T09:02:52;9.70;;;5.35;;
64520;SDS011;50896;46.714;17.322;2023-02-28T09:05:18;9.23;;;5.63;;
64520;SDS011;50896;46.714;17.322;2023-02-28T09:07:45;10.57;;;5.45;;
64520;SDS011;50896;46.714;17.322;2023-02-28T09:10:12;8.45;;;5.60;;
64520;SDS011;50896;46.714;17.322;2023-02-28T09:12:39;8.98;;;5.18;;
64520;SDS011;50896;46.714;17.322;2023-02-28T09:15:06;8.98;;;6.07;;
64520;SDS011;50896;46.714;17.322;2023-02-28T09:17:33;9.57;;;5.70;;
64520;SDS011;50896;46.714;17.322;2023-02-28T09:20:00;9.43;;;5.97;;
64520;SDS011;50896;46.714;17.322;2023-02-28T09:22:30;8.13;;;5.70;;
64520;SDS011;50896;46.714;17.322;2023-02-28T09:24:56;9.32;;;5.68;;
64520;SDS011;50896;46.714;17.322;2023-02-28T09:27:23;11.02;;;5.93;;
64520;SDS011;50896;46.714;17.322;2023-02-28T09:29:50;9.10;;;5.90;;
64520;SDS011;50896;46.714;17.322;2023-02-28T09:32:17;12.23;;;6.30;;
64520;SDS011;50896;46.714;17.322;2023-02-28T09:34:44;11.02;;;6.22;;
64520;SDS011;50896;46.714;17.322;2023-02-28T09:37:11;9.00;;;6.00;;
64520;SDS011;50896;46.714;17.322;2023-02-28T09:39:37;10.35;;;6.13;;
64520;SDS011;50896;46.714;17.322;2023-02-28T09:42:05;9.15;;;5.75;;
64520;SDS011;50896;46.714;17.322;2023-02-28T09:44:41;12.07;;;5.90;;
64520;SDS011;50896;46.714;17.322;2023-02-28T09:47:20;11.48;;;6.05;;
64520;SDS011;50896;46.714;17.322;2023-02-28T09:49:57;10.13;;;5.88;;
64520;SDS011;50896;46.714;17.322;2023-02-28T09:52:30;10.85;;;5.90;;
64520;SDS011;50896;46.714;17.322;2023-02-28T09:55:11;8.82;;;5.25;;
64520;SDS011;50896;46.714;17.322;2023-02-28T09:57:46;9.35;;;6.18;;
64520;SDS011;50896;46.714;17.322;2023-02-28T10:08:42;8.75;;;6.15;;
64520;SDS011;50896;46.714;17.322;2023-02-28T10:11:18;10.18;;;6.13;;
64520;SDS011;50896;46.714;17.322;2023-02-28T10:19:38;12.65;;;7.15;;
64520;SDS011;50896;46.714;17.322;2023-02-28T10:24:51;8.20;;;5.78;;
64520;SDS011;50896;46.714;17.322;2023-02-28T10:27:23;10.85;;;6.20;;
64520;SDS011;50896;46.714;17.322;2023-02-28T10:29:53;9.73;;;6.30;;
64520;SDS011;50896;46.714;17.322;2023-02-28T10:34:57;10.25;;;6.18;;
64520;SDS011;50896;46.714;17.322;2023-02-28T10:37:27;13.10;;;6.78;;
64520;SDS011;50896;46.714;17.322;2023-02-28T10:39:54;13.15;;;6.85;;
64520;SDS011;50896;46.714;17.322;2023-02-28T10:42:23;11.02;;;6.15;;
64520;SDS011;50896;46.714;17.322;2023-02-28T10:45:10;14.30;;;6.90;;
64520;SDS011;50896;46.714;17.322;2023-02-28T10:53:14;11.75;;;6.70;;
64520;SDS011;50896;46.714;17.322;2023-02-28T10:55:42;13.10;;;6.82;;
64520;SDS011;50896;46.714;17.322;2023-02-28T10:58:23;9.23;;;6.15;;
64520;SDS011;50896;46.714;17.322;2023-02-28T11:00:51;11.07;;;6.60;;
64520;SDS011;50896;46.714;17.322;2023-02-28T11:03:28;10.02;;;6.70;;
64520;SDS011;50896;46.714;17.322;2023-02-28T11:05:58;11.30;;;6.60;;
64520;SDS011;50896;46.714;17.322;2023-02-28T11:08:30;11.57;;;6.85;;
64520;SDS011;50896;46.714;17.322;2023-02-28T11:10:58;9.40;;;6.50;;
64520;SDS011;50896;46.714;17.322;2023-02-28T11:13:29;9.90;;;7.35;;
64520;SDS011;50896;46.714;17.322;2023-02-28T11:16:02;11.05;;;7.15;;
64520;SDS011;50896;46.714;17.322;2023-02-28T11:18:36;11.57;;;6.68;;
64520;SDS011;50896;46.714;17.322;2023-02-28T11:21:18;12.30;;;7.30;;
64520;SDS011;50896;46.714;17.322;2023-02-28T11:23:49;11.60;;;7.20;;
64520;SDS011;50896;46.714;17.322;2023-02-28T11:26:37;11.02;;;6.95;;
64520;SDS011;50896;46.714;17.322;2023-02-28T11:29:17;10.85;;;7.10;;
64520;SDS011;50896;46.714;17.322;2023-02-28T11:34:37;10.40;;;7.05;;
64520;SDS011;50896;46.714;17.322;2023-02-28T11:37:09;9.55;;;7.18;;
64520;SDS011;50896;46.714;17.322;2023-02-28T11:39:43;8.48;;;6.07;;
64520;SDS011;50896;46.714;17.322;2023-02-28T12:02:01;11.27;;;6.10;;
64520;SDS011;50896;46.714;17.322;2023-02-28T12:07:49;8.88;;;6.18;;
64520;SDS011;50896;46.714;17.322;2023-02-28T12:10:30;8.38;;;5.70;;
64520;SDS011;50896;46.714;17.322;2023-02-28T12:13:20;8.38;;;6.10;;
64520;SDS011;50896;46.714;17.322;2023-02-28T12:22:03;10.02;;;6.25;;
64520;SDS011;50896;46.714;17.322;2023-02-28T12:27:21;8.70;;;5.78;;
64520;SDS011;50896;46.714;17.322;2023-02-28T12:32:46;9.70;;;6.30;;
64520;SDS011;50896;46.714;17.322;2023-02-28T12:35:25;10.75;;;6.13;;
64520;SDS011;50896;46.714;17.322;2023-02-28T12:38:14;9.23;;;6.25;;
64520;SDS011;50896;46.714;17.322;2023-02-28T12:41:00;12.68;;;7.50;;
64520;SDS011;50896;46.714;17.322;2023-02-28T12:43:37;10.38;;;6.70;;
64520;SDS011;50896;46.714;17.322;2023-02-28T12:48:40;10.32;;;6.43;;
64520;SDS011;50896;46.714;17.322;2023-02-28T12:51:10;13.05;;;6.57;;
64520;SDS011;50896;46.714;17.322;2023-02-28T12:56:33;9.50;;;6.63;;
64520;SDS011;50896;46.714;17.322;2023-02-28T13:04:52;8.63;;;6.38;;
64520;SDS011;50896;46.714;17.322;2023-02-28T13:09:59;8.38;;;5.50;;
64520;SDS011;50896;46.714;17.322;2023-02-28T13:12:28;9.52;;;6.25;;
64520;SDS011;50896;46.714;17.322;2023-02-28T13:15:12;7.43;;;5.47;;
64520;SDS011;50896;46.714;17.322;2023-02-28T13:17:43;9.48;;;5.65;;
64520;SDS011;50896;46.714;17.322;2023-02-28T13:20:17;10.35;;;5.78;;
64520;SDS011;50896;46.714;17.322;2023-02-28T13:22:47;8.20;;;5.30;;
64520;SDS011;50896;46.714;17.322;2023-02-28T13:27:52;6.65;;;4.97;;
64520;SDS011;50896;46.714;17.322;2023-02-28T13:31:09;8.88;;;5.95;;
64520;SDS011;50896;46.714;17.322;2023-02-28T13:33:21;7.78;;;5.10;;
64520;SDS011;50896;46.714;17.322;2023-02-28T13:35:59;7.22;;;4.88;;
64520;SDS011;50896;46.714;17.322;2023-02-28T13:38:38;8.30;;;4.88;;
64520;SDS011;50896;46.714;17.322;2023-02-28T13:44:06;12.07;;;5.70;;
64520;SDS011;50896;46.714;17.322;2023-02-28T13:49:30;10.13;;;5.45;;
64520;SDS011;50896;46.714;17.322;2023-02-28T13:57:32;9.48;;;6.60;;
64520;SDS011;50896;46.714;17.322;2023-02-28T14:05:34;11.15;;;6.90;;
64520;SDS011;50896;46.714;17.322;2023-02-28T14:08:06;9.20;;;7.20;;
64520;SDS011;50896;46.714;17.322;2023-02-28T14:11:03;9.75;;;6.70;;
64520;SDS011;50896;46.714;17.322;2023-02-28T14:13:38;9.43;;;6.78;;
64520;SDS011;50896;46.714;17.322;2023-02-28T14:16:14;8.85;;;6.13;;
64520;SDS011;50896;46.714;17.322;2023-02-28T14:18:50;8.77;;;6.30;;
64520;SDS011;50896;46.714;17.322;2023-02-28T14:21:33;9.90;;;6.72;;
64520;SDS011;50896;46.714;17.322;2023-02-28T14:41:14;8.68;;;6.35;;
64520;SDS011;50896;46.714;17.322;2023-02-28T14:44:12;10.95;;;7.28;;
64520;SDS011;50896;46.714;17.322;2023-02-28T14:46:42;11.63;;;7.78;;
64520;SDS011;50896;46.714;17.322;2023-02-28T14:49:21;11.85;;;7.35;;
64520;SDS011;50896;46.714;17.322;2023-02-28T14:54:33;13.27;;;8.23;;
64520;SDS011;50896;46.714;17.322;2023-02-28T14:57:00;12.27;;;8.23;;
64520;SDS011;50896;46.714;17.322;2023-02-28T15:04:51;22.92;;;9.27;;
64520;SDS011;50896;46.714;17.322;2023-02-28T15:07:20;14.85;;;9.00;;
64520;SDS011;50896;46.714;17.322;2023-02-28T15:13:00;14.20;;;8.85;;
64520;SDS011;50896;46.714;17.322;2023-02-28T15:18:29;13.30;;;8.68;;
64520;SDS011;50896;46.714;17.322;2023-02-28T15:21:21;12.02;;;8.45;;
64520;SDS011;50896;46.714;17.322;2023-02-28T15:23:55;11.93;;;8.13;;
64520;SDS011;50896;46.714;17.322;2023-02-28T15:26:28;14.65;;;9.10;;
64520;SDS011;50896;46.714;17.322;2023-02-28T15:29:00;12.77;;;8.07;;
64520;SDS011;50896;46.714;17.322;2023-02-28T15:31:31;12.50;;;7.88;;
64520;SDS011;50896;46.714;17.322;2023-02-28T15:34:23;10.60;;;7.53;;
64520;SDS011;50896;46.714;17.322;2023-02-28T15:37:06;11.70;;;7.30;;
64520;SDS011;50896;46.714;17.322;2023-02-28T15:39:53;10.55;;;7.05;;
64520;SDS011;50896;46.714;17.322;2023-02-28T15:42:23;12.00;;;7.80;;
64520;SDS011;50896;46.714;17.322;2023-02-28T15:44:54;10.50;;;6.97;;
64520;SDS011;50896;46.714;17.322;2023-02-28T15:47:22;10.27;;;8.05;;
64520;SDS011;50896;46.714;17.322;2023-02-28T15:49:53;12.45;;;7.68;;
64520;SDS011;50896;46.714;17.322;2023-02-28T15:52:28;11.20;;;7.85;;
64520;SDS011;50896;46.714;17.322;2023-02-28T15:55:08;10.82;;;7.88;;
64520;SDS011;50896;46.714;17.322;2023-02-28T15:57:44;10.43;;;7.68;;
64520;SDS011;50896;46.714;17.322;2023-02-28T16:00:14;12.48;;;7.78;;
64520;SDS011;50896;46.714;17.322;2023-02-28T16:02:42;10.90;;;7.40;;
64520;SDS011;50896;46.714;17.322;2023-02-28T16:07:37;13.52;;;8.30;;
64520;SDS011;50896;46.714;17.322;2023-02-28T16:10:06;12.23;;;8.23;;
64520;SDS011;50896;46.714;17.322;2023-02-28T16:12:35;13.32;;;8.73;;
64520;SDS011;50896;46.714;17.322;2023-02-28T16:15:06;13.20;;;8.88;;
64520;SDS011;50896;46.714;17.322;2023-02-28T16:17:35;12.27;;;8.57;;
64520;SDS011;50896;46.714;17.322;2023-02-28T16:20:11;14.15;;;8.38;;
64520;SDS011;50896;46.714;17.322;2023-02-28T16:22:40;13.20;;;9.18;;
64520;SDS011;50896;46.714;17.322;2023-02-28T16:25:12;14.98;;;8.77;;
64520;SDS011;50896;46.714;17.322;2023-02-28T16:27:40;13.15;;;9.75;;
64520;SDS011;50896;46.714;17.322;2023-02-28T16:30:15;14.45;;;9.32;;
64520;SDS011;50896;46.714;17.322;2023-02-28T16:32:46;14.77;;;9.55;;
64520;SDS011;50896;46.714;17.322;2023-02-28T16:35:13;14.32;;;8.65;;
64520;SDS011;50896;46.714;17.322;2023-02-28T16:37:40;15.48;;;8.65;;
64520;SDS011;50896;46.714;17.322;2023-02-28T16:40:28;12.88;;;8.43;;
64520;SDS011;50896;46.714;17.322;2023-02-28T16:42:59;16.27;;;8.85;;
64520;SDS011;50896;46.714;17.322;2023-02-28T16:45:30;13.63;;;9.00;;
64520;SDS011;50896;46.714;17.322;2023-02-28T16:47:57;13.18;;;8.93;;
64520;SDS011;50896;46.714;17.322;2023-02-28T16:50:25;15.63;;;9.50;;
64520;SDS011;50896;46.714;17.322;2023-02-28T16:52:54;14.20;;;8.85;;
64520;SDS011;50896;46.714;17.322;2023-02-28T16:55:22;12.07;;;8.13;;
64520;SDS011;50896;46.714;17.322;2023-02-28T16:57:54;13.00;;;9.02;;
64520;SDS011;50896;46.714;17.322;2023-02-28T17:00:29;15.65;;;10.68;;
64520;SDS011;50896;46.714;17.322;2023-02-28T17:05:25;12.52;;;8.65;;
64520;SDS011;50896;46.714;17.322;2023-02-28T17:08:04;15.95;;;9.10;;
64520;SDS011;50896;46.714;17.322;2023-02-28T17:10:31;12.32;;;8.43;;
64520;SDS011;50896;46.714;17.322;2023-02-28T17:12:58;14.88;;;9.00;;
64520;SDS011;50896;46.714;17.322;2023-02-28T17:15:39;13.07;;;8.85;;
64520;SDS011;50896;46.714;17.322;2023-02-28T17:18:08;15.25;;;9.23;;
64520;SDS011;50896;46.714;17.322;2023-02-28T17:20:41;12.10;;;8.27;;
64520;SDS011;50896;46.714;17.322;2023-02-28T17:23:08;13.40;;;9.02;;
64520;SDS011;50896;46.714;17.322;2023-02-28T17:25:35;20.13;;;10.55;;
64520;SDS011;50896;46.714;17.322;2023-02-28T17:28:02;15.40;;;10.02;;
64520;SDS011;50896;46.714;17.322;2023-02-28T17:30:30;17.98;;;9.63;;
64520;SDS011;50896;46.714;17.322;2023-02-28T17:33:00;18.58;;;10.00;;
64520;SDS011;50896;46.714;17.322;2023-02-28T17:35:27;15.32;;;9.63;;
64520;SDS011;50896;46.714;17.322;2023-02-28T17:37:54;16.25;;;9.43;;
64520;SDS011;50896;46.714;17.322;2023-02-28T17:40:22;13.75;;;8.80;;
64520;SDS011;50896;46.714;17.322;2023-02-28T17:42:50;13.55;;;9.30;;
64520;SDS011;50896;46.714;17.322;2023-02-28T17:45:18;14.93;;;9.15;;